Time;durP1;ratioP1;P1;durP2;ratioP2;P2;SDS_P1;SDS_P2;PMS_P1;PMS_P2;Temp;Humidity;BMP_temperature;BMP_pressure;BME280_temperature;BME280_humidity;BME280_pressure;Samples;Min_cycle;Max_cycle;Signal;HPM_P1;HPM_P2
2023/03/26 00:00:55;;;;;;;18.83;4.50;;;7.50;99.90;;;;;;5034648;28;20428;-51
2023/03/26 00:03:21;;;;;;;21.83;4.63;;;7.50;99.90;;;;;;5034980;28;20189;-50
2023/03/26 00:05:48;;;;;;;17.47;4.50;;;7.50;99.90;;;;;;5034632;28;20843;-50
2023/03/26 00:08:15;;;;;;;22.63;3.80;;;7.50;99.90;;;;;;5034698;28;20191;-50
2023/03/26 00:10:42;;;;;;;18.40;4.47;;;7.40;99.90;;;;;;5034664;28;20432;-50
2023/03/26 00:13:09;;;;;;;18.53;4.20;;;7.40;99.90;;;;;;5034406;28;20456;-51
2023/03/26 00:15:36;;;;;;;20.83;4.40;;;7.40;99.90;;;;;;5034242;28;20898;-50
2023/03/26 00:18:01;;;;;;;25.33;5.13;;;7.40;99.90;;;;;;5034480;28;20470;-51
2023/03/26 00:20:31;;;;;;;17.17;4.13;;;7.40;99.90;;;;;;5034509;28;20928;-50
2023/03/26 00:23:00;;;;;;;25.80;4.70;;;7.40;99.90;;;;;;5034376;28;20194;-50
2023/03/26 00:25:26;;;;;;;15.67;4.63;;;7.40;99.90;;;;;;5034475;28;20413;-50
2023/03/26 00:27:52;;;;;;;13.43;3.93;;;7.30;99.90;;;;;;5034279;28;20540;-50
2023/03/26 00:30:18;;;;;;;19.03;4.73;;;7.30;99.90;;;;;;5034317;28;20412;-50
2023/03/26 00:32:45;;;;;;;18.97;4.00;;;7.40;99.90;;;;;;5034243;28;20462;-50
2023/03/26 00:35:11;;;;;;;24.40;3.80;;;7.30;99.90;;;;;;5034013;28;20428;-50
2023/03/26 00:37:41;;;;;;;11.70;4.40;;;7.30;99.90;;;;;;5033687;28;20532;-50
2023/03/26 00:40:09;;;;;;;12.10;3.47;;;7.30;99.90;;;;;;5033586;28;20483;-50
2023/03/26 00:42:36;;;;;;;20.10;4.13;;;7.30;99.90;;;;;;5033894;28;20527;-50
2023/03/26 00:45:03;;;;;;;20.13;4.37;;;7.30;99.90;;;;;;5034066;28;20976;-50
2023/03/26 00:47:29;;;;;;;15.60;3.87;;;7.30;99.90;;;;;;5033712;28;20802;-50
2023/03/26 00:49:56;;;;;;;11.70;3.60;;;7.30;99.90;;;;;;5033918;28;20484;-51
2023/03/26 00:52:22;;;;;;;14.20;3.37;;;7.30;99.90;;;;;;5033899;28;20424;-50
2023/03/26 00:54:50;;;;;;;19.73;4.30;;;7.30;99.90;;;;;;5033872;28;20416;-50
2023/03/26 00:57:19;;;;;;;12.07;3.93;;;7.20;99.90;;;;;;5033865;28;20424;-50
2023/03/26 00:59:45;;;;;;;11.53;4.00;;;7.30;99.90;;;;;;5033807;28;20443;-51
2023/03/26 01:02:15;;;;;;;17.17;3.73;;;7.30;99.90;;;;;;5033756;28;20412;-50
2023/03/26 01:04:45;;;;;;;20.63;3.67;;;7.30;99.90;;;;;;5033862;28;20210;-50
2023/03/26 01:07:20;;;;;;;11.20;3.40;;;7.30;99.90;;;;;;5033634;28;20409;-50
2023/03/26 01:09:51;;;;;;;15.77;5.00;;;7.20;99.90;;;;;;5031775;28;20404;-50
2023/03/26 01:12:21;;;;;;;15.63;3.90;;;7.30;99.90;;;;;;5034045;28;20448;-50
2023/03/26 01:14:48;;;;;;;8.20;3.03;;;7.30;99.90;;;;;;5033589;28;20421;-49
2023/03/26 01:17:14;;;;;;;12.97;3.10;;;7.20;99.90;;;;;;5033253;28;20413;-50
2023/03/26 01:20:06;;;;;;;9.00;2.67;;;7.10;99.90;;;;;;5033439;28;20504;-51
2023/03/26 01:22:35;;;;;;;6.90;2.83;;;7.00;99.90;;;;;;5033881;28;20438;-50
2023/03/26 01:25:02;;;;;;;6.97;2.70;;;7.00;99.90;;;;;;5033477;28;20953;-49
2023/03/26 01:27:44;;;;;;;9.60;2.63;;;7.00;99.90;;;;;;5033580;28;20445;-49
2023/03/26 01:30:16;;;;;;;9.53;3.13;;;6.90;99.90;;;;;;5033335;28;20401;-49
2023/03/26 01:32:54;;;;;;;9.00;2.67;;;6.90;99.90;;;;;;5033647;28;20497;-50
2023/03/26 01:35:53;;;;;;;7.57;2.30;;;6.80;99.90;;;;;;5033238;28;20417;-50
2023/03/26 01:38:26;;;;;;;14.33;2.97;;;6.70;99.90;;;;;;5032939;28;20535;-49
2023/03/26 01:41:11;;;;;;;18.53;3.20;;;6.70;99.90;;;;;;5033477;28;20523;-49
2023/03/26 01:44:04;;;;;;;14.33;3.13;;;6.60;99.90;;;;;;5033399;28;20480;-49
2023/03/26 01:46:34;;;;;;;14.80;3.33;;;6.60;99.90;;;;;;5033211;28;20441;-49
2023/03/26 01:49:05;;;;;;;17.20;3.40;;;6.60;99.90;;;;;;5033045;28;20531;-49
2023/03/26 01:51:34;;;;;;;11.20;3.00;;;6.50;99.90;;;;;;5033367;28;20487;-49
2023/03/26 01:54:02;;;;;;;19.10;4.20;;;6.50;99.90;;;;;;5033304;28;20486;-50
2023/03/26 01:56:55;;;;;;;15.43;3.10;;;6.60;99.90;;;;;;5032697;28;20431;-50
2023/03/26 01:59:21;;;;;;;18.67;3.40;;;6.60;99.90;;;;;;5033230;28;20486;-49
2023/03/26 02:02:00;;;;;;;13.57;3.27;;;6.50;99.90;;;;;;5032934;28;20417;-49
2023/03/26 02:04:47;;;;;;;15.63;3.33;;;6.60;99.90;;;;;;5033251;28;20239;-50
2023/03/26 02:07:19;;;;;;;26.17;3.93;;;6.60;99.90;;;;;;5033225;28;20418;-49
2023/03/26 02:13:07;;;;;;;12.10;3.00;;;6.60;99.90;;;;;;5033065;28;20471;-50
2023/03/26 02:15:33;;;;;;;14.47;3.30;;;6.60;99.90;;;;;;5032885;28;20777;-50
2023/03/26 02:18:00;;;;;;;12.03;3.20;;;6.60;99.90;;;;;;5032587;28;20217;-50
2023/03/26 02:20:29;;;;;;;18.60;3.20;;;6.60;99.90;;;;;;5033785;28;20320;-49
2023/03/26 02:22:56;;;;;;;16.17;2.63;;;6.60;99.90;;;;;;5036275;28;20423;-50
2023/03/26 02:25:22;;;;;;;22.23;3.80;;;6.60;99.20;;;;;;5036227;28;20786;-52
2023/03/26 02:27:50;;;;;;;15.10;2.70;;;6.60;93.00;;;;;;5036320;28;20436;-50
2023/03/26 02:30:19;;;;;;;10.23;2.97;;;6.60;84.10;;;;;;5036128;28;20784;-49
2023/03/26 02:32:45;;;;;;;17.13;2.70;;;6.50;75.40;;;;;;5036353;28;20416;-50
2023/03/26 02:35:11;;;;;;;11.50;3.50;;;6.50;80.20;;;;;;5036351;28;20775;-50
2023/03/26 02:37:37;;;;;;;15.07;2.90;;;6.50;75.40;;;;;;5036642;28;20758;-50
2023/03/26 02:40:09;;;;;;;14.37;2.57;;;6.50;58.30;;;;;;5036147;28;20774;-50
2023/03/26 02:42:35;;;;;;;18.67;3.60;;;6.50;46.10;;;;;;5036395;28;20436;-50
2023/03/26 02:45:01;;;;;;;13.70;2.57;;;6.50;34.80;;;;;;5035826;28;20480;-50
2023/03/26 02:47:27;;;;;;;11.70;2.63;;;6.50;21.30;;;;;;5036076;28;20752;-50
2023/03/26 02:49:52;;;;;;;15.10;2.50;;;6.50;1.00;;;;;;5036246;28;20269;-50
2023/03/26 02:52:18;;;;;;;9.50;2.50;;;6.50;1.00;;;;;;5036008;28;20186;-50
2023/03/26 02:54:44;;;;;;;13.60;2.63;;;6.40;1.00;;;;;;5036253;28;20185;-50
2023/03/26 02:57:09;;;;;;;7.33;1.97;;;6.30;1.00;;;;;;5036261;28;20178;-50
2023/03/26 02:59:35;;;;;;;9.23;1.80;;;6.30;1.00;;;;;;5035733;28;20218;-52
2023/03/26 03:02:01;;;;;;;17.17;2.43;;;6.30;1.00;;;;;;5035907;28;20269;-50
2023/03/26 03:04:26;;;;;;;8.27;2.10;;;6.20;1.00;;;;;;5035873;28;20184;-50
2023/03/26 03:06:56;;;;;;;6.67;2.03;;;6.20;1.00;;;;;;5035527;28;20210;-50
2023/03/26 03:09:23;;;;;;;12.20;2.00;;;6.20;1.00;;;;;;5035880;28;20191;-50
2023/03/26 03:11:50;;;;;;;15.30;2.53;;;6.10;1.00;;;;;;5035840;28;20417;-50
2023/03/26 03:14:16;;;;;;;8.70;2.10;;;6.10;1.00;;;;;;5035948;28;20429;-50
2023/03/26 03:16:42;;;;;;;11.00;2.23;;;6.10;1.00;;;;;;5035191;28;20428;-50
2023/03/26 03:19:07;;;;;;;9.33;2.00;;;6.00;1.00;;;;;;5035239;28;20216;-50
2023/03/26 03:21:33;;;;;;;10.03;2.67;;;6.00;1.00;;;;;;5035878;28;20186;-50
2023/03/26 03:23:58;;;;;;;9.60;2.97;;;5.90;1.00;;;;;;5035936;28;20214;-50
2023/03/26 03:26:26;;;;;;;14.13;2.43;;;5.90;1.00;;;;;;5035187;28;20198;-51
2023/03/26 03:28:56;;;;;;;11.00;2.43;;;5.90;1.00;;;;;;5035500;28;20199;-50
2023/03/26 03:31:26;;;;;;;16.03;2.60;;;5.80;1.00;;;;;;5035183;28;20428;-50
2023/03/26 03:33:52;;;;;;;8.30;2.27;;;5.80;1.00;;;;;;5035102;28;20445;-51
2023/03/26 03:36:22;;;;;;;8.77;2.13;;;5.80;1.00;;;;;;5035397;28;20435;-50
2023/03/26 03:38:49;;;;;;;14.07;2.50;;;5.80;1.00;;;;;;5035207;28;20905;-50
2023/03/26 03:41:17;;;;;;;11.30;2.43;;;5.80;1.00;;;;;;5035458;28;20512;-50
2023/03/26 03:43:43;;;;;;;30.33;2.90;;;5.80;1.00;;;;;;5034815;28;20467;-50
2023/03/26 03:46:09;;;;;;;14.70;2.97;;;5.80;1.00;;;;;;5035284;28;20455;-50
2023/03/26 03:48:37;;;;;;;14.00;2.60;;;5.80;1.00;;;;;;5034619;28;20461;-51
2023/03/26 03:51:04;;;;;;;15.60;2.30;;;5.80;1.00;;;;;;5035112;28;20200;-52
2023/03/26 03:53:30;;;;;;;13.23;2.43;;;5.80;1.00;;;;;;5034641;28;20886;-50
2023/03/26 03:55:56;;;;;;;11.87;2.53;;;5.80;1.00;;;;;;5034860;28;20417;-50
2023/03/26 03:58:27;;;;;;;11.33;2.40;;;5.80;1.00;;;;;;5035186;28;20223;-50
2023/03/26 04:01:03;;;;;;;24.07;2.90;;;5.80;1.00;;;;;;5034651;28;20877;-50
2023/03/26 04:03:29;;;;;;;8.80;2.60;;;5.80;1.00;;;;;;5034433;28;20412;-50
2023/03/26 04:05:55;;;;;;;22.37;3.33;;;5.80;1.00;;;;;;5034957;28;20441;-50
2023/03/26 04:08:22;;;;;;;22.93;3.37;;;5.80;1.00;;;;;;5034541;28;20423;-50
2023/03/26 04:10:48;;;;;;;15.97;3.50;;;5.80;1.00;;;;;;5033027;28;20890;-51
2023/03/26 04:13:14;;;;;;;23.37;2.43;;;5.80;1.00;;;;;;5034695;28;20510;-50
2023/03/26 04:15:42;;;;;;;11.40;2.77;;;5.80;1.00;;;;;;5034624;28;20425;-51
2023/03/26 04:18:11;;;;;;;14.23;2.70;;;5.80;1.00;;;;;;5034121;28;20479;-50
2023/03/26 04:20:46;;;;;;;12.70;2.77;;;5.80;1.00;;;;;;5034186;28;20413;-50
2023/03/26 04:23:17;;;;;;;19.00;3.20;;;5.70;1.00;;;;;;5034701;28;20401;-52
2023/03/26 04:25:47;;;;;;;17.63;3.20;;;5.70;1.00;;;;;;5034320;28;20433;-51
2023/03/26 04:28:27;;;;;;;19.37;3.30;;;5.60;1.00;;;;;;5034278;28;20414;-50
2023/03/26 04:30:54;;;;;;;15.73;3.50;;;5.50;1.00;;;;;;5034396;28;20451;-50
2023/03/26 04:33:20;;;;;;;14.83;2.90;;;5.50;1.00;;;;;;5034355;28;20511;-50
2023/03/26 04:35:47;;;;;;;20.10;3.40;;;5.40;1.00;;;;;;5034289;28;20421;-50
2023/03/26 04:38:15;;;;;;;11.40;2.50;;;5.50;1.00;;;;;;5034004;28;20527;-50
2023/03/26 04:40:42;;;;;;;15.23;3.10;;;5.50;99.90;;;;;;5034434;28;20749;-50
2023/03/26 04:43:16;;;;;;;17.10;2.70;;;5.50;99.90;;;;;;5033577;28;20424;-51
2023/03/26 04:45:44;;;;;;;10.87;2.87;;;5.50;99.90;;;;;;5033570;28;20427;-51
2023/03/26 04:48:13;;;;;;;11.10;2.23;;;5.50;99.90;;;;;;5033957;28;20428;-51
2023/03/26 04:50:42;;;;;;;13.37;2.80;;;5.50;88.10;;;;;;5033493;28;20873;-51
2023/03/26 04:53:12;;;;;;;14.33;2.40;;;5.50;1.00;;;;;;5033440;28;20428;-50
2023/03/26 04:56:12;;;;;;;11.60;1.93;;;5.50;1.00;;;;;;5033893;28;20424;-51
2023/03/26 04:58:38;;;;;;;8.20;2.10;;;5.50;1.00;;;;;;5025056;28;20494;-51
2023/03/26 05:01:04;;;;;;;9.20;2.53;;;5.40;1.00;;;;;;5033555;28;20421;-51
2023/03/26 05:03:30;;;;;;;10.63;2.00;;;5.30;1.00;;;;;;5033586;28;20815;-51
2023/03/26 05:06:00;;;;;;;4.03;1.43;;;5.20;30.00;;;;;;5033188;28;20619;-50
2023/03/26 05:08:27;;;;;;;6.70;1.63;;;5.20;50.60;;;;;;5033616;28;20421;-51
2023/03/26 05:10:56;;;;;;;7.60;1.77;;;5.20;86.30;;;;;;5033859;28;20478;-50
2023/03/26 05:13:22;;;;;;;13.67;1.73;;;5.10;89.90;;;;;;5033917;28;20751;-51
2023/03/26 05:15:48;;;;;;;13.93;2.10;;;5.10;99.90;;;;;;5033800;28;20416;-51
2023/03/26 05:18:15;;;;;;;13.07;2.20;;;5.00;99.90;;;;;;5033211;28;20937;-50
2023/03/26 05:20:41;;;;;;;11.43;2.40;;;5.00;99.90;;;;;;5033554;28;20186;-51
2023/03/26 05:23:06;;;;;;;8.27;2.30;;;5.00;99.90;;;;;;5033398;28;20458;-51
2023/03/26 05:25:33;;;;;;;12.80;1.80;;;4.90;99.90;;;;;;5033320;28;20912;-51
2023/03/26 05:27:59;;;;;;;9.83;1.93;;;4.90;99.90;;;;;;5033592;28;20190;-50
2023/03/26 05:30:25;;;;;;;10.77;2.70;;;5.00;99.90;;;;;;5033668;28;20507;-50
2023/03/26 05:32:51;;;;;;;9.60;1.93;;;5.00;1.00;;;;;;5033575;28;20445;-51
2023/03/26 05:35:17;;;;;;;7.43;2.00;;;5.10;1.00;;;;;;5033228;28;20182;-50
2023/03/26 05:37:44;;;;;;;8.90;2.00;;;5.10;1.00;;;;;;5033431;28;20214;-50
2023/03/26 05:40:13;;;;;;;12.73;2.30;;;5.10;1.00;;;;;;5033403;28;20412;-50
2023/03/26 05:42:39;;;;;;;9.13;1.70;;;5.20;1.00;;;;;;5033139;28;20412;-50
2023/03/26 05:45:07;;;;;;;6.17;1.90;;;5.20;1.00;;;;;;5033003;28;20460;-50
2023/03/26 05:47:33;;;;;;;10.03;2.00;;;5.20;1.00;;;;;;5033060;28;20429;-51
2023/03/26 05:49:59;;;;;;;18.60;3.27;;;5.20;1.00;;;;;;5033221;28;20417;-51
2023/03/26 05:52:25;;;;;;;5.60;3.00;;;5.20;1.00;;;;;;5033568;28;20417;-51
2023/03/26 05:54:50;;;;;;;9.33;2.10;;;5.20;1.00;;;;;;5033229;28;20424;-51
2023/03/26 05:57:17;;;;;;;6.17;2.10;;;5.20;1.00;;;;;;5037168;28;20181;-50
2023/03/26 05:59:43;;;;;;;9.97;2.07;;;5.20;1.00;;;;;;5037059;28;20253;-50
2023/03/26 06:02:09;;;;;;;13.70;2.43;;;5.20;1.00;;;;;;5037153;28;20457;-52
2023/03/26 06:04:39;;;;;;;9.70;2.43;;;5.20;1.00;;;;;;5037289;28;20177;-50
2023/03/26 06:07:08;;;;;;;8.23;2.57;;;5.20;1.00;;;;;;5036889;28;20413;-50
2023/03/26 06:09:37;;;;;;;8.43;2.07;;;5.30;1.00;;;;;;5036877;28;20415;-50
2023/03/26 06:12:07;;;;;;;9.30;2.40;;;5.30;1.00;;;;;;5036940;28;20467;-50
2023/03/26 06:14:33;;;;;;;10.60;2.50;;;5.30;1.00;;;;;;5036826;28;20466;-50
2023/03/26 06:16:59;;;;;;;16.17;2.53;;;5.40;1.00;;;;;;5037005;28;20445;-51
2023/03/26 06:19:24;;;;;;;8.27;2.80;;;5.50;99.90;;;;;;5036879;28;20658;-50
2023/03/26 06:21:50;;;;;;;17.90;2.87;;;5.50;99.90;;;;;;5036653;28;20232;-51
2023/03/26 06:24:15;;;;;;;11.50;3.27;;;5.60;99.90;;;;;;5036665;28;20185;-51
2023/03/26 06:26:41;;;;;;;9.90;2.20;;;5.60;99.90;;;;;;5036752;28;20546;-51
2023/03/26 06:29:07;;;;;;;10.67;3.03;;;5.70;99.90;;;;;;5036294;28;20181;-50
2023/03/26 06:31:34;;;;;;;13.30;2.97;;;5.70;99.90;;;;;;5036728;28;20421;-51
2023/03/26 06:33:59;;;;;;;22.30;3.00;;;5.80;99.90;;;;;;5036410;28;20470;-51
2023/03/26 06:36:25;;;;;;;11.00;2.47;;;5.80;97.30;;;;;;5036597;28;20500;-52
2023/03/26 06:38:51;;;;;;;20.63;2.97;;;5.90;1.00;;;;;;5036500;28;20574;-51
2023/03/26 06:41:16;;;;;;;20.73;2.57;;;5.90;1.00;;;;;;5036294;28;20647;-50
2023/03/26 06:43:42;;;;;;;19.67;2.90;;;5.90;1.00;;;;;;5036122;28;20277;-51
2023/03/26 06:46:08;;;;;;;12.57;2.73;;;5.90;1.00;;;;;;5036122;28;20174;-50
2023/03/26 06:48:34;;;;;;;20.70;2.70;;;6.00;1.00;;;;;;5035866;28;20190;-51
2023/03/26 06:50:59;;;;;;;12.77;2.40;;;6.10;1.00;;;;;;5035991;28;20889;-51
2023/03/26 06:53:25;;;;;;;15.70;2.63;;;6.20;99.90;;;;;;5035997;28;20182;-51
2023/03/26 06:55:52;;;;;;;13.80;2.30;;;6.20;46.60;;;;;;5035695;28;20182;-51
2023/03/26 06:58:18;;;;;;;15.60;2.57;;;6.20;1.00;;;;;;5035945;28;20304;-51
2023/03/26 07:00:44;;;;;;;8.77;2.03;;;6.30;99.90;;;;;;5035993;28;20865;-51
2023/03/26 07:03:10;;;;;;;20.87;2.50;;;6.40;1.00;;;;;;5035671;28;20190;-51
2023/03/26 07:05:36;;;;;;;11.80;2.40;;;6.50;28.10;;;;;;5035902;28;20236;-52
2023/03/26 07:08:01;;;;;;;8.37;1.83;;;6.50;17.10;;;;;;5034836;28;20485;-52
2023/03/26 07:10:27;;;;;;;11.00;3.00;;;6.50;1.00;;;;;;5035777;28;20905;-52
2023/03/26 07:12:53;;;;;;;16.77;2.13;;;6.60;1.00;;;;;;5035823;28;20626;-51
2023/03/26 07:15:18;;;;;;;15.53;2.13;;;6.50;1.00;;;;;;5035707;28;20217;-51
2023/03/26 07:17:44;;;;;;;15.10;2.70;;;6.50;1.00;;;;;;5035393;28;20550;-51
2023/03/26 07:20:10;;;;;;;20.00;3.17;;;6.40;99.90;;;;;;5035657;28;20722;-52
2023/03/26 07:22:36;;;;;;;12.60;3.20;;;6.50;1.30;;;;;;5035553;28;20192;-51
2023/03/26 07:25:03;;;;;;;11.47;2.27;;;6.60;1.00;;;;;;5035428;28;20433;-51
2023/03/26 07:27:47;;;;;;;20.13;2.77;;;6.70;1.00;;;;;;5035266;28;20766;-51
2023/03/26 07:30:12;;;;;;;17.23;3.17;;;6.80;1.00;;;;;;5035450;28;20886;-51
2023/03/26 07:32:50;;;;;;;9.50;2.80;;;6.80;1.00;;;;;;5035416;28;20418;-52
2023/03/26 07:35:43;;;;;;;11.33;3.30;;;7.30;1.00;;;;;;5035650;28;20509;-51
2023/03/26 07:38:33;;;;;;;17.43;2.67;;;7.60;1.00;;;;;;5033850;28;20472;-51
2023/03/26 07:41:17;;;;;;;12.87;2.73;;;7.30;1.00;;;;;;5033946;28;20420;-51
2023/03/26 07:44:11;;;;;;;16.97;3.17;;;7.20;1.00;;;;;;5033390;28;20538;-52
2023/03/26 07:46:38;;;;;;;13.23;2.83;;;7.10;1.00;;;;;;5033889;28;20426;-51
2023/03/26 07:49:04;;;;;;;10.10;2.90;;;7.10;1.00;;;;;;5033662;28;20426;-52
2023/03/26 07:51:31;;;;;;;22.77;2.70;;;7.00;1.00;;;;;;5033803;28;20931;-51
2023/03/26 07:53:59;;;;;;;16.40;2.77;;;6.80;1.00;;;;;;5035071;28;20417;-53
2023/03/26 07:56:49;;;;;;;19.40;3.43;;;6.70;1.00;;;;;;5035152;28;20757;-51
2023/03/26 07:59:33;;;;;;;17.23;2.60;;;6.60;1.00;;;;;;5034595;28;20469;-51
2023/03/26 08:02:38;;;;;;;17.40;3.63;;;6.60;1.00;;;;;;5034879;28;20484;-51
2023/03/26 08:05:09;;;;;;;25.73;3.40;;;6.80;1.00;;;;;;5035014;28;20795;-51
2023/03/26 08:07:54;;;;;;;13.63;2.70;;;7.00;1.00;;;;;;5034591;28;20747;-51
2023/03/26 08:10:34;;;;;;;19.90;3.27;;;7.10;1.00;;;;;;5034714;28;20818;-51
2023/03/26 08:13:20;;;;;;;16.00;3.20;;;7.00;1.00;;;;;;5034778;28;20409;-51
2023/03/26 08:16:07;;;;;;;17.73;3.20;;;7.00;1.00;;;;;;5034589;28;20412;-51
2023/03/26 08:18:45;;;;;;;24.97;3.40;;;7.00;1.00;;;;;;5034136;28;20527;-51
2023/03/26 08:21:18;;;;;;;14.37;2.90;;;7.00;1.00;;;;;;5034232;28;20404;-51
2023/03/26 08:23:48;;;;;;;20.70;3.63;;;7.10;1.00;;;;;;5034327;28;20454;-52
2023/03/26 08:26:47;;;;;;;13.43;3.10;;;7.20;1.00;;;;;;5034543;28;20521;-51
2023/03/26 08:29:19;;;;;;;12.20;3.03;;;7.20;1.00;;;;;;5034195;28;20479;-52
2023/03/26 08:31:48;;;;;;;24.40;2.87;;;7.30;1.00;;;;;;5034130;28;20773;-52
2023/03/26 08:34:14;;;;;;;14.30;2.90;;;7.30;1.00;;;;;;5034023;28;20436;-52
2023/03/26 08:36:39;;;;;;;16.03;2.70;;;7.30;1.00;;;;;;5033792;28;20413;-52
2023/03/26 08:39:06;;;;;;;14.47;2.83;;;7.30;1.00;;;;;;5034160;28;20464;-52
2023/03/26 08:41:50;;;;;;;21.53;4.13;;;7.40;1.00;;;;;;5034442;28;20182;-52
2023/03/26 08:44:39;;;;;;;17.57;2.83;;;7.50;1.00;;;;;;5033602;28;20567;-52
2023/03/26 08:47:10;;;;;;;23.50;4.13;;;7.50;1.00;;;;;;5034051;28;20807;-52
2023/03/26 08:49:48;;;;;;;16.50;3.60;;;7.60;1.00;;;;;;5033870;28;20428;-52
2023/03/26 08:52:49;;;;;;;19.27;3.20;;;7.60;1.00;;;;;;5033824;28;20484;-52
2023/03/26 08:55:18;;;;;;;19.40;3.20;;;7.60;1.00;;;;;;5029704;28;20433;-52
2023/03/26 08:57:49;;;;;;;13.97;2.93;;;7.60;1.00;;;;;;5033753;28;20456;-53
2023/03/26 09:00:25;;;;;;;16.47;3.27;;;7.60;1.00;;;;;;5033867;28;20515;-52
2023/03/26 09:03:22;;;;;;;13.23;2.87;;;7.70;1.00;;;;;;5033659;28;20761;-52
2023/03/26 09:06:06;;;;;;;20.97;3.47;;;7.80;1.00;;;;;;5014560;28;20971;-52
2023/03/26 09:08:50;;;;;;;16.30;2.80;;;8.10;1.00;;;;;;5034101;28;20516;-53
2023/03/26 09:11:26;;;;;;;15.63;3.70;;;8.40;1.00;;;;;;5034141;28;20488;-53
2023/03/26 09:14:10;;;;;;;15.47;3.10;;;8.60;1.00;;;;;;5033483;28;20503;-53
2023/03/26 09:16:54;;;;;;;15.90;3.23;;;8.70;1.00;;;;;;5032934;28;20423;-53
2023/03/26 09:19:50;;;;;;;16.83;2.67;;;8.60;1.00;;;;;;5032657;28;20456;-54
2023/03/26 09:22:43;;;;;;;13.23;2.53;;;8.30;1.00;;;;;;5032779;28;20429;-54
2023/03/26 09:25:26;;;;;;;13.40;2.73;;;8.20;1.00;;;;;;5032653;28;20409;-53
2023/03/26 09:28:34;;;;;;;16.90;2.70;;;8.50;1.00;;;;;;5032727;28;20400;-52
2023/03/26 09:31:28;;;;;;;16.70;3.70;;;8.60;1.00;;;;;;5027805;28;20945;-53
2023/03/26 09:34:22;;;;;;;9.40;2.33;;;9.20;1.00;;;;;;5036248;28;20455;-54
2023/03/26 09:37:12;;;;;;;17.17;3.07;;;9.40;1.00;;;;;;5026733;28;20428;-54
2023/03/26 09:39:58;;;;;;;10.40;2.77;;;9.50;1.00;;;;;;5037496;28;20451;-52
2023/03/26 09:42:43;;;;;;;10.33;2.73;;;9.50;1.00;;;;;;5037216;28;20430;-53
2023/03/26 09:45:38;;;;;;;5.83;2.73;;;9.30;1.00;;;;;;5036942;28;20850;-52
2023/03/26 09:48:28;;;;;;;19.10;4.10;;;8.90;1.00;;;;;;5037434;28;20401;-53
2023/03/26 09:51:20;;;;;;;22.03;3.47;;;8.90;1.00;;;;;;5037253;28;20783;-53
2023/03/26 09:54:11;;;;;;;17.40;2.60;;;9.50;1.00;;;;;;5037138;28;20496;-53
2023/03/26 09:56:51;;;;;;;17.63;2.80;;;9.80;1.00;;;;;;5036971;28;20393;-53
2023/03/26 09:59:49;;;;;;;13.27;3.20;;;9.60;1.00;;;;;;5037036;28;20466;-53
2023/03/26 10:02:43;;;;;;;14.07;3.30;;;9.40;1.00;;;;;;5024759;28;20429;-53
2023/03/26 10:05:12;;;;;;;15.00;3.10;;;9.30;1.00;;;;;;5037210;28;20405;-53
2023/03/26 10:07:57;;;;;;;13.23;2.30;;;9.50;1.00;;;;;;5036609;28;20439;-53
2023/03/26 10:10:44;;;;;;;11.17;2.50;;;9.90;1.00;;;;;;5036905;28;20466;-53
2023/03/26 10:13:23;;;;;;;12.73;3.33;;;10.40;1.00;;;;;;5035261;28;20800;-53
2023/03/26 10:16:11;;;;;;;14.30;3.10;;;10.30;1.00;;;;;;5036864;28;20491;-53
2023/03/26 10:18:55;;;;;;;15.67;2.90;;;10.40;1.00;;;;;;5036380;28;20456;-53
2023/03/26 10:21:51;;;;;;;20.03;3.40;;;10.30;1.00;;;;;;5036651;28;20462;-54
2023/03/26 10:24:39;;;;;;;9.40;3.23;;;10.30;1.00;;;;;;5036692;28;20420;-53
2023/03/26 10:27:20;;;;;;;20.40;3.30;;;10.40;1.00;;;;;;5036197;28;20951;-53
2023/03/26 10:29:57;;;;;;;12.90;2.90;;;11.00;1.00;;;;;;5036482;28;20534;-53
2023/03/26 10:32:47;;;;;;;21.70;2.70;;;11.10;1.00;;;;;;5036350;28;20419;-53
2023/03/26 10:35:37;;;;;;;9.30;2.67;;;10.60;1.00;;;;;;5036742;28;20501;-53
2023/03/26 10:38:12;;;;;;;18.17;3.10;;;10.40;1.00;;;;;;5036058;28;20463;-53
2023/03/26 10:40:56;;;;;;;12.63;2.43;;;10.50;1.00;;;;;;5036664;28;20408;-53
2023/03/26 10:43:22;;;;;;;16.07;3.83;;;10.50;1.00;;;;;;5036168;28;20482;-53
2023/03/26 10:46:00;;;;;;;9.10;2.70;;;10.70;1.00;;;;;;5036688;28;20431;-53
2023/03/26 10:48:45;;;;;;;18.87;3.23;;;11.00;1.00;;;;;;5036003;28;20873;-52
2023/03/26 10:51:50;;;;;;;11.50;2.97;;;12.10;1.00;;;;;;5036170;28;20432;-53
2023/03/26 10:54:40;;;;;;;10.47;2.20;;;13.00;1.00;;;;;;5036350;28;20413;-53
2023/03/26 10:57:20;;;;;;;11.07;2.97;;;13.50;1.00;;;;;;5035915;28;20417;-53
2023/03/26 10:59:46;;;;;;;23.47;3.03;;;14.00;1.00;;;;;;5036036;28;20526;-53
2023/03/26 11:02:24;;;;;;;11.47;2.80;;;15.10;1.00;;;;;;5036126;28;20905;-53
2023/03/26 11:05:22;;;;;;;14.13;4.00;;;15.80;1.00;;;;;;5036056;28;20178;-53
2023/03/26 11:07:57;;;;;;;14.20;2.50;;;15.30;1.00;;;;;;5036368;28;20486;-53
2023/03/26 11:11:03;;;;;;;14.03;2.70;;;14.60;1.00;;;;;;5035656;28;20915;-53
2023/03/26 11:13:38;;;;;;;11.57;2.50;;;13.60;1.00;;;;;;5036078;28;20543;-53
2023/03/26 11:16:14;;;;;;;13.23;2.80;;;13.50;1.00;;;;;;5035409;28;20425;-53
2023/03/26 11:18:55;;;;;;;14.63;3.10;;;14.20;1.00;;;;;;5035508;28;20460;-54
2023/03/26 11:21:31;;;;;;;13.63;2.97;;;14.70;1.00;;;;;;5034329;28;20800;-54
2023/03/26 11:24:30;;;;;;;11.20;2.87;;;15.30;1.00;;;;;;5035715;28;20420;-55
2023/03/26 11:27:03;;;;;;;9.90;2.57;;;15.70;1.00;;;;;;5035803;28;20430;-53
2023/03/26 11:29:45;;;;;;;10.23;2.40;;;15.40;1.00;;;;;;5035388;28;20776;-53
2023/03/26 11:32:23;;;;;;;11.37;2.50;;;14.80;1.00;;;;;;5035201;28;20421;-53
2023/03/26 11:34:57;;;;;;;6.60;2.17;;;14.40;1.00;;;;;;5035189;28;20420;-53
2023/03/26 11:37:37;;;;;;;10.87;2.60;;;14.70;1.00;;;;;;5035023;28;21047;-54
2023/03/26 11:40:20;;;;;;;11.50;2.80;;;15.10;1.00;;;;;;5035352;28;20580;-53
2023/03/26 11:42:48;;;;;;;16.27;3.13;;;14.80;1.00;;;;;;5035282;28;20413;-54
2023/03/26 11:45:19;;;;;;;7.60;2.43;;;14.30;1.00;;;;;;5034697;28;20834;-53
2023/03/26 11:47:55;;;;;;;9.83;2.70;;;14.40;1.00;;;;;;5035608;28;20551;-53
2023/03/26 11:50:26;;;;;;;13.37;2.40;;;15.00;1.00;;;;;;5035177;28;20417;-53
2023/03/26 11:52:57;;;;;;;13.63;2.67;;;15.50;1.00;;;;;;5034111;28;20436;-54
2023/03/26 11:55:25;;;;;;;20.37;3.10;;;16.00;1.00;;;;;;5034654;28;20406;-54
2023/03/26 11:57:55;;;;;;;14.20;2.57;;;16.00;1.00;;;;;;5034828;28;20912;-54
2023/03/26 12:00:26;;;;;;;11.83;2.73;;;16.20;1.00;;;;;;5034961;28;20981;-54
2023/03/26 12:02:55;;;;;;;12.43;2.83;;;16.20;1.00;;;;;;5035063;28;20887;-55
2023/03/26 12:05:25;;;;;;;14.40;3.60;;;16.00;1.00;;;;;;5034940;28;20421;-53
2023/03/26 12:07:58;;;;;;;13.57;3.13;;;15.80;1.00;;;;;;5034714;28;20482;-54
2023/03/26 12:10:36;;;;;;;8.40;2.47;;;15.80;1.00;;;;;;5034372;28;20431;-54
2023/03/26 12:13:25;;;;;;;11.37;2.50;;;16.20;1.00;;;;;;5034378;28;20957;-55
2023/03/26 12:15:58;;;;;;;9.80;2.87;;;15.90;1.00;;;;;;5034800;28;20403;-54
2023/03/26 12:18:26;;;;;;;13.77;2.63;;;15.90;1.00;;;;;;5034634;28;20877;-54
2023/03/26 12:21:04;;;;;;;13.30;2.70;;;15.80;1.00;;;;;;5034573;28;20448;-54
2023/03/26 12:23:57;;;;;;;9.53;2.60;;;16.00;1.00;;;;;;5034517;28;20420;-54
2023/03/26 12:26:40;;;;;;;14.73;3.33;;;16.10;1.00;;;;;;5034358;28;20455;-54
2023/03/26 12:29:12;;;;;;;12.57;2.83;;;16.00;1.00;;;;;;5034539;28;20530;-55
2023/03/26 12:31:49;;;;;;;10.10;2.40;;;16.00;1.00;;;;;;5034295;28;20889;-54
2023/03/26 12:34:18;;;;;;;11.00;2.70;;;16.10;1.00;;;;;;5033800;28;20440;-54
2023/03/26 12:36:53;;;;;;;13.03;2.40;;;16.30;1.00;;;;;;5033979;28;20425;-54
2023/03/26 12:39:26;;;;;;;11.07;3.27;;;16.20;1.00;;;;;;5033864;28;20460;-54
2023/03/26 12:41:57;;;;;;;9.30;2.60;;;16.10;1.00;;;;;;5034059;28;20417;-54
2023/03/26 12:44:37;;;;;;;17.07;3.03;;;15.70;1.00;;;;;;5033708;28;21010;-54
2023/03/26 12:47:17;;;;;;;11.23;3.00;;;15.60;1.00;;;;;;5033914;28;20920;-54
2023/03/26 12:49:44;;;;;;;10.43;2.50;;;15.50;1.00;;;;;;5033597;28;20424;-54
2023/03/26 12:52:16;;;;;;;12.03;2.67;;;15.90;1.00;;;;;;5033883;28;20425;-54
2023/03/26 12:54:55;;;;;;;14.10;2.57;;;15.70;1.00;;;;;;5033366;28;20559;-54
2023/03/26 12:57:25;;;;;;;8.40;2.17;;;16.00;1.00;;;;;;5033650;28;20769;-54
2023/03/26 12:59:59;;;;;;;7.67;2.13;;;16.20;1.00;;;;;;5034150;28;20483;-53
2023/03/26 13:02:51;;;;;;;10.70;2.47;;;16.50;1.00;;;;;;5034118;28;20409;-54
2023/03/26 13:05:28;;;;;;;12.80;2.60;;;16.30;1.00;;;;;;5024334;28;20425;-54
2023/03/26 13:08:24;;;;;;;13.33;3.20;;;16.20;1.00;;;;;;5033441;28;20416;-54
2023/03/26 13:11:13;;;;;;;13.53;2.50;;;16.50;1.00;;;;;;5033586;28;20844;-54
2023/03/26 13:13:56;;;;;;;11.50;2.60;;;16.40;1.00;;;;;;5033560;28;20910;-55
2023/03/26 13:16:29;;;;;;;17.73;3.10;;;16.40;1.00;;;;;;5033278;28;20446;-54
2023/03/26 13:19:01;;;;;;;10.00;2.50;;;16.50;1.00;;;;;;5033470;28;20487;-54
2023/03/26 13:21:38;;;;;;;10.60;2.73;;;16.50;1.00;;;;;;5033497;28;20405;-54
2023/03/26 13:24:36;;;;;;;8.50;2.50;;;16.50;1.00;;;;;;5033427;28;20393;-54
2023/03/26 13:27:25;;;;;;;11.13;2.83;;;16.30;1.00;;;;;;5033573;28;20409;-54
2023/03/26 13:29:58;;;;;;;8.27;2.50;;;16.20;1.00;;;;;;5033420;28;20410;-54